createdAt,value
2019-05-25T00:00:49.181Z,16.02
2019-05-25T00:01:49.357Z,16.10
2019-05-25T00:02:49.561Z,16.01
2019-05-25T00:03:49.731Z,15.95
2019-05-25T00:04:49.916Z,15.86
2019-05-25T00:05:50.110Z,15.80
2019-05-25T00:06:50.199Z,15.83
2019-05-25T00:07:50.421Z,15.84
2019-05-25T00:08:50.631Z,15.80
2019-05-25T00:09:50.790Z,15.82
2019-05-25T00:10:51.006Z,15.76
2019-05-25T00:11:51.203Z,15.67
2019-05-25T00:12:51.384Z,15.72
2019-05-25T00:13:51.566Z,15.76
2019-05-25T00:14:51.765Z,15.76
2019-05-25T00:15:51.978Z,15.77
2019-05-25T00:16:52.166Z,15.80
2019-05-25T00:17:52.382Z,15.80
2019-05-25T00:18:52.451Z,15.75
2019-05-25T00:19:52.639Z,15.65
2019-05-25T00:20:52.882Z,15.75
2019-05-25T00:21:53.042Z,15.73
2019-05-25T00:22:53.238Z,15.65
2019-05-25T00:23:53.432Z,15.51
2019-05-25T00:24:53.634Z,15.44
2019-05-25T00:25:53.893Z,15.57
2019-05-25T00:26:54.014Z,15.47
2019-05-25T00:27:54.211Z,15.62
2019-05-25T00:28:54.411Z,15.58
2019-05-25T00:29:54.601Z,15.51
2019-05-25T00:30:54.784Z,15.42
2019-05-25T00:31:54.971Z,15.47
2019-05-25T00:32:55.179Z,15.44
2019-05-25T00:33:55.362Z,15.27
2019-05-25T00:34:55.545Z,15.33
2019-05-25T00:35:55.732Z,15.15
2019-05-25T00:36:55.927Z,15.27
2019-05-25T00:37:56.098Z,15.25
2019-05-25T00:38:56.305Z,15.28
2019-05-25T00:39:56.481Z,15.25
2019-05-25T00:40:56.683Z,15.25
2019-05-25T00:41:56.862Z,15.33
2019-05-25T00:42:57.046Z,15.22
2019-05-25T00:43:57.238Z,15.33
2019-05-25T00:44:57.423Z,15.25
2019-05-25T00:45:57.630Z,15.28
2019-05-25T00:46:57.805Z,15.09
2019-05-25T00:47:57.988Z,15.19
2019-05-25T00:48:58.175Z,15.24
2019-05-25T00:49:58.345Z,15.10
2019-05-25T00:50:58.517Z,14.94
2019-05-25T00:51:58.704Z,15.04
2019-05-25T00:52:58.875Z,15.00
2019-05-25T00:53:59.114Z,15.06
2019-05-25T00:54:59.170Z,15.00
2019-05-25T00:55:59.388Z,14.97
2019-05-25T00:56:59.448Z,14.96
2019-05-25T00:57:59.644Z,14.86
2019-05-25T00:58:59.857Z,14.84
2019-05-25T01:00:00.063Z,14.84
2019-05-25T01:01:00.250Z,14.72
2019-05-25T01:02:00.416Z,14.86
2019-05-25T01:03:00.642Z,14.89
2019-05-25T01:04:00.706Z,14.88
2019-05-25T01:05:00.935Z,15.00
2019-05-25T01:06:01.156Z,14.94
2019-05-25T01:07:01.216Z,14.94
2019-05-25T01:08:01.412Z,14.97
2019-05-25T01:09:01.601Z,14.99
2019-05-25T01:10:01.866Z,15.00
2019-05-25T01:11:01.982Z,15.00
2019-05-25T01:12:02.183Z,14.96
2019-05-25T01:13:02.355Z,14.84
2019-05-25T01:14:02.546Z,14.88
2019-05-25T01:15:02.727Z,14.89
2019-05-25T01:16:02.951Z,14.86
2019-05-25T01:17:03.076Z,14.84
2019-05-25T01:18:03.137Z,14.73
2019-05-25T01:19:03.326Z,14.85
2019-05-25T01:20:03.576Z,14.91
2019-05-25T01:21:03.699Z,14.78
2019-05-25T01:22:03.896Z,14.92
2019-05-25T01:23:04.097Z,14.84
2019-05-25T01:24:04.298Z,14.69
2019-05-25T01:25:04.463Z,14.73
2019-05-25T01:26:04.644Z,14.73
2019-05-25T01:27:04.855Z,14.84
2019-05-25T01:28:05.057Z,14.62
2019-05-25T01:29:05.238Z,14.69
2019-05-25T01:30:05.451Z,14.59
2019-05-25T01:31:05.658Z,14.65
2019-05-25T01:32:05.843Z,14.59
2019-05-25T01:33:06.026Z,14.70
2019-05-25T01:34:06.220Z,14.68
2019-05-25T01:35:06.398Z,14.60
2019-05-25T01:36:06.586Z,14.62
2019-05-25T01:37:06.773Z,14.77
2019-05-25T01:38:06.983Z,14.68
2019-05-25T01:39:07.189Z,14.62
2019-05-25T01:40:07.412Z,14.66
2019-05-25T01:41:07.469Z,14.53
2019-05-25T01:42:07.689Z,14.47
2019-05-25T01:43:07.885Z,14.40
2019-05-25T01:44:08.126Z,14.44
2019-05-25T01:45:08.204Z,14.47
2019-05-25T01:46:08.392Z,14.36
2019-05-25T01:47:08.574Z,14.29
2019-05-25T01:48:08.761Z,14.29
2019-05-25T01:49:08.991Z,14.10
2019-05-25T01:50:09.204Z,14.20
2019-05-25T01:51:09.322Z,14.15
2019-05-25T01:52:09.481Z,14.23
2019-05-25T01:53:11.620Z,14.22
2019-05-25T01:54:09.865Z,14.20
2019-05-25T01:55:10.059Z,14.07
2019-05-25T01:56:10.232Z,14.05
2019-05-25T01:57:10.414Z,14.11
2019-05-25T01:58:10.635Z,14.08
2019-05-25T01:59:10.727Z,14.20
2019-05-25T02:00:10.897Z,14.23
2019-05-25T02:01:11.072Z,14.25
2019-05-25T02:02:11.266Z,14.23
2019-05-25T02:03:11.476Z,14.20
2019-05-25T02:04:11.686Z,14.29
2019-05-25T02:05:11.793Z,14.20
2019-05-25T02:06:11.991Z,14.17
2019-05-25T02:07:12.195Z,14.18
2019-05-25T02:08:12.399Z,14.32
2019-05-25T02:09:12.607Z,14.20
2019-05-25T02:10:12.803Z,14.14
2019-05-25T02:11:12.995Z,14.22
2019-05-25T02:12:13.207Z,14.22
2019-05-25T02:13:13.422Z,14.23
2019-05-25T02:14:13.634Z,14.32
2019-05-25T02:15:13.817Z,14.23
2019-05-25T02:16:14.055Z,14.15
2019-05-25T02:17:14.111Z,14.08
2019-05-25T02:18:14.293Z,14.10
2019-05-25T02:19:14.486Z,14.10
2019-05-25T02:20:14.677Z,14.00
2019-05-25T02:21:14.881Z,13.86
2019-05-25T02:22:15.081Z,13.85
2019-05-25T02:23:15.262Z,13.99
2019-05-25T02:24:15.454Z,13.90
2019-05-25T02:25:18.300Z,14.03
2019-05-25T02:26:15.820Z,13.95
2019-05-25T02:27:16.098Z,13.93
2019-05-25T02:28:16.152Z,13.95
2019-05-25T02:29:16.388Z,13.92
2019-05-25T02:30:16.455Z,13.89
2019-05-25T02:31:16.641Z,13.99
2019-05-25T02:32:16.854Z,13.93
2019-05-25T02:33:17.067Z,13.93
2019-05-25T02:34:17.270Z,13.83
2019-05-25T02:35:17.450Z,13.90
2019-05-25T02:36:20.620Z,14.03
2019-05-25T02:37:17.721Z,13.97
2019-05-25T02:38:17.920Z,13.96
2019-05-25T02:39:18.099Z,13.93
2019-05-25T02:40:18.275Z,13.92
2019-05-25T02:41:18.480Z,14.04
2019-05-25T02:42:18.672Z,13.93
2019-05-25T02:43:18.844Z,13.99
2019-05-25T02:44:19.010Z,13.90
2019-05-25T02:45:19.213Z,13.95
2019-05-25T02:46:19.399Z,14.00
2019-05-25T02:47:19.602Z,13.87
2019-05-25T02:48:19.790Z,14.03
2019-05-25T02:49:19.881Z,13.95
2019-05-25T02:50:20.087Z,13.77
2019-05-25T02:51:20.262Z,13.79
2019-05-25T02:52:20.492Z,13.74
2019-05-25T02:53:20.673Z,13.79
2019-05-25T02:54:20.864Z,13.79
2019-05-25T02:55:33.647Z,13.83
2019-05-25T02:56:21.263Z,13.79
2019-05-25T02:57:21.463Z,13.89
2019-05-25T02:58:21.706Z,13.77
2019-05-25T02:59:21.829Z,13.72
2019-05-25T03:00:22.049Z,13.89
2019-05-25T03:01:22.228Z,13.81
2019-05-25T03:02:22.482Z,13.67
2019-05-25T03:03:22.615Z,13.75
2019-05-25T03:04:22.826Z,13.81
2019-05-25T03:05:22.920Z,13.79
2019-05-25T03:06:23.127Z,13.83
2019-05-25T03:07:23.320Z,13.71
2019-05-25T03:08:23.535Z,13.74
2019-05-25T03:09:23.735Z,13.75
2019-05-25T03:10:23.912Z,13.68
2019-05-25T03:11:24.110Z,13.70
2019-05-25T03:12:24.293Z,13.70
2019-05-25T03:13:24.483Z,13.65
2019-05-25T03:14:24.675Z,13.59
2019-05-25T03:15:24.859Z,13.62
2019-05-25T03:16:25.041Z,13.54
2019-05-25T03:17:25.254Z,13.56
2019-05-25T03:18:25.448Z,13.62
2019-05-25T03:19:25.672Z,13.57
2019-05-25T03:20:25.877Z,13.67
2019-05-25T03:21:26.084Z,13.56
2019-05-25T03:22:26.274Z,13.57
2019-05-25T03:23:26.485Z,13.53
2019-05-25T03:24:26.646Z,13.46
2019-05-25T03:25:26.826Z,13.47
2019-05-25T03:26:27.007Z,13.50
2019-05-25T03:27:27.194Z,13.39
2019-05-25T03:28:27.405Z,13.50
2019-05-25T03:29:27.589Z,13.54
2019-05-25T03:30:27.775Z,13.47
2019-05-25T03:31:27.940Z,13.46
2019-05-25T03:32:28.161Z,13.35
2019-05-25T03:33:28.372Z,13.49
2019-05-25T03:34:28.542Z,13.38
2019-05-25T03:35:28.762Z,13.39
2019-05-25T03:36:28.950Z,13.42
2019-05-25T03:37:29.144Z,13.35
2019-05-25T03:38:29.334Z,13.33
2019-05-25T03:39:29.526Z,13.37
2019-05-25T03:40:29.709Z,13.44
2019-05-25T03:41:29.916Z,13.44
2019-05-25T03:42:30.092Z,13.49
2019-05-25T03:43:30.294Z,13.59
2019-05-25T03:44:30.482Z,13.67
2019-05-25T03:45:30.668Z,13.60
2019-05-25T03:46:30.852Z,13.65
2019-05-25T03:47:31.036Z,13.68
2019-05-25T03:48:31.194Z,13.79
2019-05-25T03:49:31.357Z,13.81
2019-05-25T03:50:31.535Z,13.75
2019-05-25T03:51:31.740Z,13.72
2019-05-25T03:52:31.934Z,13.79
2019-05-25T03:53:32.123Z,13.86
2019-05-25T03:54:32.306Z,13.81
2019-05-25T03:55:32.512Z,13.85
2019-05-25T03:56:32.665Z,13.92
2019-05-25T03:57:32.843Z,13.92
2019-05-25T03:58:33.020Z,13.90
2019-05-25T03:59:33.190Z,13.90
2019-05-25T04:00:33.380Z,14.05
2019-05-25T04:01:33.556Z,14.05
2019-05-25T04:02:33.738Z,13.99
2019-05-25T04:03:33.914Z,14.11
2019-05-25T04:04:34.125Z,14.12
2019-05-25T04:05:34.206Z,14.18
2019-05-25T04:06:34.388Z,14.11
2019-05-25T04:07:34.564Z,14.17
2019-05-25T04:08:34.742Z,14.17
2019-05-25T04:09:34.910Z,14.29
2019-05-25T04:10:38.180Z,14.25
2019-05-25T04:11:35.287Z,14.22
2019-05-25T04:12:35.466Z,14.12
2019-05-25T04:13:35.881Z,14.04
2019-05-25T04:14:35.800Z,14.17
2019-05-25T04:15:36.058Z,14.12
2019-05-25T04:16:36.230Z,14.15
2019-05-25T04:17:36.400Z,14.05
2019-05-25T04:18:36.592Z,14.11
2019-05-25T04:19:36.792Z,14.11
2019-05-25T04:20:36.971Z,14.14
2019-05-25T04:21:37.230Z,14.11
2019-05-25T04:22:37.333Z,14.10
2019-05-25T04:23:37.515Z,13.97
2019-05-25T04:24:37.725Z,14.14
2019-05-25T04:25:37.942Z,14.05
2019-05-25T04:26:38.042Z,13.95
2019-05-25T04:27:38.232Z,14.03
2019-05-25T04:28:38.422Z,14.10
2019-05-25T04:29:38.648Z,13.96
2019-05-25T04:30:38.809Z,13.87
2019-05-25T04:31:38.976Z,13.79
2019-05-25T04:32:39.150Z,13.83
2019-05-25T04:33:39.329Z,13.77
2019-05-25T04:34:39.528Z,13.99
2019-05-25T04:35:39.718Z,13.90
2019-05-25T04:36:40.152Z,13.83
2019-05-25T04:37:40.050Z,13.92
2019-05-25T04:38:40.419Z,13.96
2019-05-25T04:39:40.340Z,13.96
2019-05-25T04:40:40.535Z,14.00
2019-05-25T04:41:40.725Z,13.93
2019-05-25T04:42:40.911Z,13.79
2019-05-25T04:43:41.100Z,13.92
2019-05-25T04:44:41.281Z,13.92
2019-05-25T04:45:41.445Z,13.90
2019-05-25T04:46:41.641Z,13.92
2019-05-25T04:47:41.840Z,13.92
2019-05-25T04:48:42.043Z,14.05
2019-05-25T04:49:42.220Z,14.11
2019-05-25T04:50:42.448Z,14.10
2019-05-25T04:51:42.518Z,14.05
2019-05-25T04:52:42.756Z,14.17
2019-05-25T04:53:42.824Z,14.23
2019-05-25T04:54:43.204Z,14.35
2019-05-25T04:55:43.198Z,14.44
2019-05-25T04:56:43.396Z,14.43
2019-05-25T04:57:43.606Z,14.40
2019-05-25T04:58:43.860Z,14.45
2019-05-25T04:59:44.198Z,14.60
2019-05-25T05:00:44.132Z,14.58
2019-05-25T05:01:44.341Z,14.63
2019-05-25T05:02:44.538Z,14.65
2019-05-25T05:03:44.706Z,14.58
2019-05-25T05:04:44.909Z,14.69
2019-05-25T05:05:45.073Z,14.85
2019-05-25T05:06:45.270Z,14.86
2019-05-25T05:07:45.468Z,14.68
2019-05-25T05:08:45.649Z,14.79
2019-05-25T05:10:01.179Z,14.79
2019-05-25T05:10:46.041Z,14.89
2019-05-25T05:11:46.252Z,14.92
2019-05-25T05:12:46.421Z,15.09
2019-05-25T05:13:46.642Z,15.22
2019-05-25T05:14:46.934Z,15.09
2019-05-25T05:15:47.025Z,15.22
2019-05-25T05:16:47.170Z,15.25
2019-05-25T05:17:47.349Z,15.35
2019-05-25T05:18:47.513Z,15.46
2019-05-25T05:19:47.902Z,15.43
2019-05-25T05:20:48.867Z,15.52
2019-05-25T05:21:48.277Z,15.55
2019-05-25T05:22:48.217Z,15.57
2019-05-25T05:23:48.380Z,15.59
2019-05-25T05:24:48.572Z,15.47
2019-05-25T05:25:48.772Z,15.65
2019-05-25T05:26:55.956Z,15.68
2019-05-25T05:27:51.592Z,15.75
2019-05-25T05:28:49.763Z,15.79
2019-05-25T05:29:49.819Z,15.91
2019-05-25T05:30:50.060Z,16.09
2019-05-25T05:31:50.102Z,16.23
2019-05-25T05:32:50.206Z,16.36
2019-05-25T05:33:50.315Z,16.36
2019-05-25T05:34:50.587Z,16.47
2019-05-25T05:35:50.757Z,16.33
2019-05-25T05:36:50.845Z,16.32
2019-05-25T05:37:51.405Z,16.39
2019-05-25T05:38:51.319Z,16.39
2019-05-25T05:39:51.434Z,16.49
2019-05-25T05:40:51.567Z,16.35
2019-05-25T05:41:51.661Z,16.47
2019-05-25T05:42:51.793Z,16.49
2019-05-25T05:43:51.988Z,16.57
2019-05-25T05:44:51.782Z,16.66
2019-05-25T05:45:51.843Z,16.68
2019-05-25T05:46:52.034Z,16.57
2019-05-25T05:47:52.214Z,16.68
2019-05-25T05:48:52.416Z,16.65
2019-05-25T05:49:52.617Z,16.86
2019-05-25T05:50:52.811Z,16.86
2019-05-25T05:51:53.087Z,16.94
2019-05-25T05:52:53.125Z,16.90
2019-05-25T05:53:53.310Z,16.96
2019-05-25T05:54:53.498Z,16.97
2019-05-25T05:55:53.699Z,16.99
2019-05-25T05:56:53.873Z,16.99
2019-05-25T05:57:54.301Z,16.94
2019-05-25T05:58:54.152Z,17.01
2019-05-25T05:59:54.380Z,16.99
2019-05-25T06:00:54.610Z,17.16
2019-05-25T06:01:54.658Z,17.14
2019-05-25T06:02:54.887Z,17.22
2019-05-25T06:03:55.088Z,17.27
2019-05-25T06:04:55.293Z,17.41
2019-05-25T06:05:55.477Z,17.71
2019-05-25T06:06:55.670Z,17.82
2019-05-25T06:07:55.884Z,17.70
2019-05-25T06:08:56.060Z,17.85
2019-05-25T06:09:56.248Z,17.83
2019-05-25T06:10:56.445Z,17.97
2019-05-25T06:11:56.665Z,17.92
2019-05-25T06:12:56.834Z,18.01
2019-05-25T06:13:57.034Z,17.98
2019-05-25T06:14:57.201Z,17.98
2019-05-25T06:15:57.383Z,18.04
2019-05-25T06:16:57.578Z,17.92
2019-05-25T06:17:57.797Z,17.68
2019-05-25T06:18:57.982Z,17.56
2019-05-25T06:19:58.152Z,17.51
2019-05-25T06:20:58.386Z,17.38
2019-05-25T06:21:58.566Z,17.38
2019-05-25T06:22:58.737Z,17.44
2019-05-25T06:23:58.945Z,17.46
2019-05-25T06:24:59.147Z,17.60
2019-05-25T06:25:59.330Z,17.65
2019-05-25T06:26:59.513Z,17.80
2019-05-25T06:27:59.693Z,17.95
2019-05-25T06:28:59.968Z,18.15
2019-05-25T06:30:00.036Z,18.25
2019-05-25T06:31:00.195Z,18.38
2019-05-25T06:32:00.367Z,18.60
2019-05-25T06:33:00.542Z,18.66
2019-05-25T06:34:00.710Z,18.89
2019-05-25T06:35:00.877Z,18.93
2019-05-25T06:36:01.078Z,19.11
2019-05-25T06:37:01.166Z,19.26
2019-05-25T06:38:01.350Z,19.18
2019-05-25T06:39:01.564Z,19.39
2019-05-25T06:40:01.756Z,19.45
2019-05-25T06:41:01.937Z,19.69
2019-05-25T06:42:02.223Z,19.71
2019-05-25T06:43:02.350Z,19.81
2019-05-25T06:44:02.494Z,19.94
2019-05-25T06:45:02.999Z,20.11
2019-05-25T06:46:02.798Z,20.22
2019-05-25T06:47:02.994Z,20.19
2019-05-25T06:48:03.164Z,20.41
2019-05-25T06:49:03.355Z,20.72
2019-05-25T06:50:03.551Z,20.75
2019-05-25T06:51:03.735Z,20.84
2019-05-25T06:52:03.945Z,20.92
2019-05-25T06:53:04.111Z,21.03
2019-05-25T06:54:04.294Z,21.27
2019-05-25T06:55:04.481Z,21.30
2019-05-25T06:56:04.609Z,21.40
2019-05-25T06:57:04.802Z,21.57
2019-05-25T06:58:05.058Z,21.60
2019-05-25T06:59:05.118Z,21.88
2019-05-25T07:00:05.312Z,21.79
2019-05-25T07:01:05.564Z,21.89
2019-05-25T07:02:05.653Z,21.89
2019-05-25T07:03:05.848Z,21.72
2019-05-25T07:04:06.045Z,21.77
2019-05-25T07:05:06.242Z,21.69
2019-05-25T07:06:06.433Z,21.76
2019-05-25T07:07:06.597Z,21.69
2019-05-25T07:08:06.810Z,21.77
2019-05-25T07:09:06.989Z,21.60
2019-05-25T07:10:07.161Z,21.55
2019-05-25T07:11:07.403Z,21.61
2019-05-25T07:12:07.590Z,21.82
2019-05-25T07:13:07.810Z,21.99
2019-05-25T07:14:08.012Z,22.06
2019-05-25T07:15:08.290Z,22.25
2019-05-25T07:16:08.512Z,22.30
2019-05-25T07:17:08.541Z,22.57
2019-05-25T07:18:08.770Z,22.68
2019-05-25T07:19:08.947Z,22.76
2019-05-25T07:20:09.489Z,22.96
2019-05-25T07:21:09.306Z,23.20
2019-05-25T07:22:09.471Z,23.34
2019-05-25T07:23:09.657Z,23.32
2019-05-25T07:24:09.869Z,23.47
2019-05-25T07:25:10.429Z,23.74
2019-05-25T07:26:10.221Z,23.86
2019-05-25T07:27:10.895Z,23.92
2019-05-25T07:28:10.565Z,24.06
2019-05-25T07:29:10.999Z,24.10
2019-05-25T07:30:11.052Z,24.21
2019-05-25T07:31:11.223Z,24.58
2019-05-25T07:32:11.222Z,24.86
2019-05-25T07:33:11.456Z,25.13
2019-05-25T07:34:11.869Z,25.40
2019-05-25T07:35:11.848Z,25.63
2019-05-25T07:36:12.059Z,25.81
2019-05-25T07:37:12.211Z,25.73
2019-05-25T07:38:12.504Z,25.96
2019-05-25T07:39:12.797Z,26.47
2019-05-25T07:40:12.687Z,26.74
2019-05-25T07:41:12.837Z,26.95
2019-05-25T07:42:13.054Z,27.32
2019-05-25T07:43:13.232Z,27.59
2019-05-25T07:44:13.476Z,27.55
2019-05-25T07:45:13.610Z,27.89
2019-05-25T07:46:16.936Z,28.01
2019-05-25T07:47:14.010Z,28.10
2019-05-25T07:48:15.305Z,27.82
2019-05-25T07:49:14.447Z,27.92
2019-05-25T07:50:14.502Z,27.89
2019-05-25T07:51:16.073Z,28.04
2019-05-25T07:52:15.578Z,28.11
2019-05-25T07:53:15.533Z,28.14
2019-05-25T07:54:15.692Z,28.51
2019-05-25T07:55:15.375Z,28.51
2019-05-25T07:56:15.622Z,28.79
2019-05-25T07:57:15.783Z,29.07
2019-05-25T07:58:18.415Z,29.08
2019-05-25T07:59:16.188Z,29.20
2019-05-25T08:00:16.509Z,29.13
2019-05-25T08:01:16.989Z,29.12
2019-05-25T08:02:16.751Z,29.34
2019-05-25T08:03:17.079Z,29.65
2019-05-25T08:04:17.184Z,29.73
2019-05-25T08:05:17.258Z,29.53
2019-05-25T08:06:17.522Z,29.71
2019-05-25T08:07:17.629Z,29.97
2019-05-25T08:08:17.804Z,30.12
2019-05-25T08:09:17.985Z,30.16
2019-05-25T08:10:18.174Z,30.12
2019-05-25T08:11:18.385Z,30.03
2019-05-25T08:12:18.548Z,30.12
2019-05-25T08:13:18.769Z,30.15
2019-05-25T08:14:18.936Z,29.94
2019-05-25T08:15:19.149Z,29.88
2019-05-25T08:16:19.328Z,30.09
2019-05-25T08:17:19.506Z,29.98
2019-05-25T08:18:19.695Z,29.88
2019-05-25T08:19:19.876Z,30.13
2019-05-25T08:20:20.088Z,30.53
2019-05-25T08:21:20.179Z,30.72
2019-05-25T08:22:20.397Z,30.72
2019-05-25T08:23:20.575Z,31.03
2019-05-25T08:24:21.057Z,30.99
2019-05-25T08:25:21.030Z,30.81
2019-05-25T08:26:21.217Z,30.50
2019-05-25T08:27:21.409Z,30.68
2019-05-25T08:28:32.271Z,30.48
2019-05-25T08:29:21.767Z,30.72
2019-05-25T08:30:21.940Z,31.05
2019-05-25T08:31:22.130Z,31.21
2019-05-25T08:32:22.303Z,31.18
2019-05-25T08:33:22.486Z,31.03
2019-05-25T08:34:22.691Z,31.46
2019-05-25T08:35:22.875Z,31.39
2019-05-25T08:36:23.954Z,31.59
2019-05-25T08:37:23.460Z,31.64
2019-05-25T08:38:23.400Z,32.22
2019-05-25T08:39:23.579Z,32.41
2019-05-25T08:40:23.782Z,32.49
2019-05-25T08:41:23.977Z,32.03
2019-05-25T08:42:24.168Z,32.22
2019-05-25T08:43:24.377Z,32.43
2019-05-25T08:44:24.602Z,32.56
2019-05-25T08:45:26.083Z,32.74
2019-05-25T08:46:24.907Z,33.05
2019-05-25T08:47:24.980Z,33.27
2019-05-25T08:48:25.200Z,33.57
2019-05-25T08:49:25.417Z,33.46
2019-05-25T08:50:37.986Z,33.40
2019-05-25T08:51:25.586Z,33.23
2019-05-25T08:52:25.676Z,33.15
2019-05-25T08:53:39.927Z,33.31
2019-05-25T08:54:26.169Z,32.96
2019-05-25T08:55:26.320Z,33.39
2019-05-25T08:56:26.514Z,33.49
2019-05-25T08:57:26.520Z,33.52
2019-05-25T08:58:26.771Z,33.68
2019-05-25T08:59:26.869Z,33.19
2019-05-25T09:00:27.185Z,33.53
2019-05-25T09:01:28.721Z,34.03
2019-05-25T09:02:27.580Z,33.94
2019-05-25T09:03:27.984Z,33.98
2019-05-25T09:04:27.749Z,33.99
2019-05-25T09:05:27.962Z,33.99
2019-05-25T09:06:28.223Z,33.71
2019-05-25T09:07:28.690Z,33.94
2019-05-25T09:08:28.377Z,34.14
2019-05-25T09:09:28.555Z,34.51
2019-05-25T09:10:29.054Z,34.71
2019-05-25T09:11:28.893Z,35.04
2019-05-25T09:12:29.190Z,35.19
2019-05-25T09:13:29.205Z,35.24
2019-05-25T09:14:29.389Z,35.37
2019-05-25T09:15:29.589Z,34.50
2019-05-25T09:16:29.841Z,34.60
2019-05-25T09:17:30.007Z,34.11
2019-05-25T09:18:30.232Z,34.01
2019-05-25T09:19:30.450Z,34.02
2019-05-25T09:20:30.633Z,34.20
2019-05-25T09:21:30.812Z,34.89
2019-05-25T09:22:30.996Z,35.33
2019-05-25T09:23:31.183Z,35.18
2019-05-25T09:24:31.394Z,35.34
2019-05-25T09:25:31.572Z,35.37
2019-05-25T09:26:31.776Z,35.39
2019-05-25T09:27:31.962Z,34.89
2019-05-25T09:28:32.143Z,35.04
2019-05-25T09:29:32.321Z,35.02
2019-05-25T09:30:32.909Z,35.11
2019-05-25T09:31:32.760Z,35.10
2019-05-25T09:32:33.006Z,35.36
2019-05-25T09:33:33.211Z,34.74
2019-05-25T09:34:34.093Z,35.04
2019-05-25T09:35:34.127Z,35.26
2019-05-25T09:36:34.260Z,35.12
2019-05-25T09:37:33.967Z,35.24
2019-05-25T09:38:34.211Z,35.39
2019-05-25T09:39:36.031Z,35.44
2019-05-25T09:40:34.480Z,35.83
2019-05-25T09:41:34.575Z,35.76
2019-05-25T09:42:34.799Z,35.89
2019-05-25T09:43:35.259Z,35.64
2019-05-25T09:44:35.219Z,35.31
2019-05-25T09:45:35.665Z,35.46
2019-05-25T09:46:35.543Z,35.52
2019-05-25T09:47:36.029Z,35.39
2019-05-25T09:48:38.239Z,35.33
2019-05-25T09:49:37.857Z,35.74
2019-05-25T09:50:36.253Z,36.14
2019-05-25T09:51:36.765Z,36.18
2019-05-25T09:52:36.873Z,36.35
2019-05-25T09:53:37.102Z,36.57
2019-05-25T09:54:37.461Z,36.45
2019-05-25T09:55:37.528Z,35.79
2019-05-25T09:56:37.837Z,35.63
2019-05-25T09:57:41.376Z,35.04
2019-05-25T09:58:38.031Z,34.74
2019-05-25T09:59:38.399Z,34.66
2019-05-25T10:00:40.308Z,34.45
2019-05-25T10:01:38.379Z,34.30
2019-05-25T10:02:38.954Z,34.16
2019-05-25T10:03:38.870Z,34.52
2019-05-25T10:04:39.153Z,34.81
2019-05-25T10:05:39.331Z,34.66
2019-05-25T10:06:39.426Z,34.10
2019-05-25T10:07:39.527Z,33.52
2019-05-25T10:08:39.575Z,33.74
2019-05-25T10:09:40.304Z,34.10
2019-05-25T10:10:39.955Z,33.94
2019-05-25T10:11:40.345Z,34.06
2019-05-25T10:12:40.628Z,33.80
2019-05-25T10:13:40.525Z,34.21
2019-05-25T10:14:41.007Z,34.10
2019-05-25T10:15:41.178Z,34.40
2019-05-25T10:16:41.018Z,34.60
2019-05-25T10:17:41.412Z,34.70
2019-05-25T10:18:41.639Z,35.12
2019-05-25T10:19:41.582Z,35.45
2019-05-25T10:20:41.895Z,35.37
2019-05-25T10:21:41.978Z,35.19
2019-05-25T10:22:42.214Z,34.92
2019-05-25T10:23:42.402Z,35.04
2019-05-25T10:24:42.383Z,34.95
2019-05-25T10:25:42.570Z,35.05
2019-05-25T10:26:42.754Z,35.31
2019-05-25T10:27:43.217Z,35.49
2019-05-25T10:28:43.293Z,35.55
2019-05-25T10:29:43.257Z,35.67
2019-05-25T10:30:43.715Z,35.79
2019-05-25T10:31:43.863Z,35.56
2019-05-25T10:32:43.726Z,35.53
2019-05-25T10:33:44.017Z,35.98
2019-05-25T10:34:44.173Z,36.08
2019-05-25T10:35:44.365Z,36.16
2019-05-25T10:36:44.749Z,36.17
2019-05-25T10:37:45.029Z,36.28
2019-05-25T10:38:44.834Z,36.18
2019-05-25T10:39:45.012Z,36.25
2019-05-25T10:40:45.195Z,36.21
2019-05-25T10:41:45.375Z,36.43
2019-05-25T10:42:45.721Z,36.79
2019-05-25T10:43:45.744Z,36.62
2019-05-25T10:44:45.932Z,36.55
2019-05-25T10:45:46.117Z,36.65
2019-05-25T10:46:46.301Z,36.33
2019-05-25T10:47:46.485Z,36.51
2019-05-25T10:48:46.675Z,36.20
2019-05-25T10:49:46.852Z,36.17
2019-05-25T10:50:47.029Z,36.05
2019-05-25T10:51:47.209Z,35.89
2019-05-25T10:52:47.390Z,36.00
2019-05-25T10:53:47.635Z,35.63
2019-05-25T10:54:47.767Z,35.22
2019-05-25T10:55:47.899Z,35.19
2019-05-25T10:56:48.157Z,35.55
2019-05-25T10:57:48.202Z,35.79
2019-05-25T10:58:48.397Z,36.23
2019-05-25T10:59:52.748Z,35.78
2019-05-25T11:00:48.889Z,35.63
2019-05-25T11:01:48.991Z,35.68
2019-05-25T11:02:49.194Z,35.61
2019-05-25T11:03:49.391Z,36.12
2019-05-25T11:04:49.625Z,35.58
2019-05-25T11:05:49.847Z,35.15
2019-05-25T11:06:50.058Z,35.23
2019-05-25T11:07:50.234Z,35.39
2019-05-25T11:08:50.446Z,35.26
2019-05-25T11:09:50.664Z,35.27
2019-05-25T11:10:50.846Z,35.23
2019-05-25T11:11:51.034Z,34.55
2019-05-25T11:12:51.222Z,34.48
2019-05-25T11:13:51.406Z,34.18
2019-05-25T11:14:51.583Z,33.83
2019-05-25T11:15:51.764Z,33.86
2019-05-25T11:16:51.948Z,33.96
2019-05-25T11:17:52.191Z,33.96
2019-05-25T11:18:52.258Z,33.50
2019-05-25T11:19:52.458Z,33.40
2019-05-25T11:20:52.649Z,33.40
2019-05-25T11:21:52.945Z,33.04
2019-05-25T11:22:53.089Z,32.96
2019-05-25T11:23:53.296Z,32.58
2019-05-25T11:24:53.835Z,32.36
2019-05-25T11:25:53.653Z,32.30
2019-05-25T11:26:54.065Z,32.34
2019-05-25T11:27:54.066Z,32.18
2019-05-25T11:28:54.241Z,32.03
2019-05-25T11:30:07.850Z,31.85
2019-05-25T11:30:55.118Z,31.70
2019-05-25T11:31:59.242Z,31.62
2019-05-25T11:32:54.990Z,31.51
2019-05-25T11:33:55.195Z,31.46
2019-05-25T11:34:55.376Z,31.17
2019-05-25T11:35:55.563Z,30.85
2019-05-25T11:36:55.748Z,30.66
2019-05-25T11:37:55.925Z,29.84
2019-05-25T11:38:56.117Z,29.71
2019-05-25T11:39:56.296Z,29.65
2019-05-25T11:40:56.473Z,29.07
2019-05-25T11:41:56.664Z,28.89
2019-05-25T11:42:56.887Z,28.62
2019-05-25T11:43:57.063Z,28.42
2019-05-25T11:44:57.277Z,28.33
2019-05-25T11:45:57.436Z,27.92
2019-05-25T11:46:57.552Z,27.70
2019-05-25T11:47:58.020Z,27.40
2019-05-25T11:48:58.024Z,27.30
2019-05-25T11:49:58.243Z,27.17
2019-05-25T11:50:58.443Z,27.10
2019-05-25T11:51:58.424Z,26.92
2019-05-25T11:52:58.884Z,26.95
2019-05-25T11:53:58.829Z,26.75
2019-05-25T11:54:59.006Z,26.88
2019-05-25T11:55:59.205Z,26.84
2019-05-25T11:56:59.383Z,26.73
2019-05-25T11:57:59.562Z,26.75
2019-05-25T11:58:59.735Z,26.81
2019-05-25T11:59:59.992Z,26.77
2019-05-25T12:01:00.250Z,26.44
2019-05-25T12:02:00.252Z,26.34
2019-05-25T12:03:00.422Z,26.28
2019-05-25T12:04:00.626Z,26.36
2019-05-25T12:05:01.071Z,26.21
2019-05-25T12:06:01.078Z,26.25
2019-05-25T12:07:01.173Z,26.13
2019-05-25T12:08:01.339Z,25.99
2019-05-25T12:09:01.512Z,25.80
2019-05-25T12:10:01.704Z,25.60
2019-05-25T12:11:01.904Z,25.63
2019-05-25T12:12:02.083Z,25.60
2019-05-25T12:13:02.275Z,25.60
2019-05-25T12:14:02.493Z,25.70
2019-05-25T12:15:02.756Z,25.87
2019-05-25T12:16:03.183Z,25.98
2019-05-25T12:17:03.038Z,26.06
2019-05-25T12:18:03.841Z,26.03
2019-05-25T12:19:03.692Z,26.02
2019-05-25T12:20:03.582Z,25.81
2019-05-25T12:21:03.751Z,25.70
2019-05-25T12:22:03.946Z,25.69
2019-05-25T12:23:04.441Z,25.69
2019-05-25T12:24:04.240Z,25.70
2019-05-25T12:25:04.421Z,25.53
2019-05-25T12:26:04.594Z,25.53
2019-05-25T12:27:04.807Z,25.26
2019-05-25T12:28:04.995Z,25.23
2019-05-25T12:29:05.191Z,25.29
2019-05-25T12:30:05.494Z,25.21
2019-05-25T12:31:05.483Z,25.01
2019-05-25T12:32:05.883Z,24.80
2019-05-25T12:33:05.907Z,24.73
2019-05-25T12:34:06.096Z,24.78
2019-05-25T12:35:06.290Z,24.66
2019-05-25T12:36:06.521Z,24.53
2019-05-25T12:37:06.668Z,24.53
2019-05-25T12:38:06.874Z,24.53
2019-05-25T12:39:07.054Z,24.47
2019-05-25T12:40:07.249Z,24.47
2019-05-25T12:41:07.417Z,24.50
2019-05-25T12:42:07.593Z,24.21
2019-05-25T12:43:07.783Z,24.20
2019-05-25T12:44:07.958Z,24.21
2019-05-25T12:45:08.163Z,24.28
2019-05-25T12:46:08.876Z,24.30
2019-05-25T12:47:08.515Z,24.42
2019-05-25T12:48:08.710Z,24.51
2019-05-25T12:49:09.198Z,24.66
2019-05-25T12:50:09.056Z,24.76
2019-05-25T12:51:09.259Z,24.85
2019-05-25T12:52:09.460Z,24.89
2019-05-25T12:53:09.689Z,24.95
2019-05-25T12:54:09.849Z,24.92
2019-05-25T12:55:10.184Z,24.76